Time;durP1;ratioP1;P1;durP2;ratioP2;P2;SDS_P1;SDS_P2;PMS_P1;PMS_P2;Temp;Humidity;BMP_temperature;BMP_pressure;BME280_temperature;BME280_humidity;BME280_pressure;Samples;Min_cycle;Max_cycle;Signal;HPM_P1;HPM_P2
2023/11/15 00:01:37;;;;;;;13.02;1.75;;;;;;;9.08;100.00;100246.25;5031641;28;20029;-87
2023/11/15 00:04:03;;;;;;;15.98;2.00;;;;;;;9.14;100.00;100249.28;5032807;28;20035;-86
2023/11/15 00:06:28;;;;;;;12.85;1.83;;;;;;;9.04;100.00;100249.88;5032644;28;20021;-86
2023/11/15 00:08:54;;;;;;;12.00;1.73;;;;;;;9.04;100.00;100249.88;5031529;28;20029;-86
2023/11/15 00:11:19;;;;;;;13.23;1.45;;;;;;;8.94;100.00;100255.53;5041294;28;20033;-87
2023/11/15 00:13:50;;;;;;;16.70;1.95;;;;;;;8.88;100.00;100253.28;5051067;28;20375;-86
2023/11/15 00:16:19;;;;;;;12.98;2.22;;;;;;;8.92;100.00;100267.66;5052639;28;20025;-87
2023/11/15 00:18:44;;;;;;;9.07;1.30;;;;;;;8.88;100.00;100266.16;5052238;28;20128;-86
2023/11/15 00:21:10;;;;;;;17.10;2.03;;;;;;;8.98;100.00;100269.91;5050939;28;20550;-86
2023/11/15 00:23:35;;;;;;;11.90;1.73;;;;;;;8.94;100.00;100263.25;5048418;28;20611;-86
2023/11/15 00:26:01;;;;;;;15.40;3.47;;;;;;;8.95;100.00;100257.22;5038322;28;20032;-86
2023/11/15 00:28:26;;;;;;;10.82;1.67;;;;;;;8.93;100.00;100256.44;5052048;28;20387;-87
2023/11/15 00:30:52;;;;;;;8.38;1.45;;;;;;;8.99;100.00;100261.25;5044924;28;20124;-86
2023/11/15 00:33:18;;;;;;;11.13;1.52;;;;;;;9.06;100.00;100263.53;5032173;28;20423;-87
2023/11/15 00:35:44;;;;;;;16.05;2.17;;;;;;;8.98;100.00;100257.03;5032271;28;20022;-87
2023/11/15 00:38:11;;;;;;;7.63;1.23;;;;;;;8.85;100.00;100256.03;5032005;28;20095;-86
2023/11/15 00:40:37;;;;;;;9.95;1.77;;;;;;;8.89;100.00;100256.69;5033054;28;20556;-86
2023/11/15 00:43:03;;;;;;;15.20;1.98;;;;;;;8.85;100.00;100256.03;5052119;28;20025;-87
2023/11/15 00:45:29;;;;;;;21.00;3.13;;;;;;;8.73;100.00;100259.22;5051830;28;20025;-86
2023/11/15 00:47:54;;;;;;;14.10;1.90;;;;;;;8.68;100.00;100256.94;5052102;28;20043;-86
2023/11/15 00:50:20;;;;;;;12.65;1.50;;;;;;;8.72;100.00;100255.84;5050967;28;20025;-86
2023/11/15 00:52:45;;;;;;;9.52;1.70;;;;;;;8.75;100.00;100260.00;5049203;28;20036;-86
2023/11/15 00:55:12;;;;;;;12.13;1.67;;;;;;;8.72;100.00;100255.84;5051806;28;20463;-86
2023/11/15 00:57:38;;;;;;;15.60;2.15;;;;;;;8.72;100.00;100265.31;5051984;28;20025;-86
2023/11/15 01:00:13;;;;;;;11.52;1.52;;;;;;;8.66;100.00;100271.63;5052126;28;20032;-86
2023/11/15 01:02:46;;;;;;;19.33;2.85;;;;;;;8.69;100.00;100268.06;5049621;28;20027;-86
2023/11/15 01:05:11;;;;;;;17.67;1.90;;;;;;;8.65;100.00;100275.06;5050160;28;20048;-86
2023/11/15 01:07:37;;;;;;;22.40;2.30;;;;;;;8.69;100.00;100266.31;5051538;28;20379;-86
2023/11/15 01:10:05;;;;;;;11.05;1.60;;;;;;;8.67;100.00;100282.72;5051736;28;20025;-86
2023/11/15 01:12:30;;;;;;;12.85;2.35;;;;;;;8.73;100.00;100285.81;5040830;28;20029;-86
2023/11/15 01:14:55;;;;;;;19.40;2.75;;;;;;;8.71;100.00;100295.34;5031555;28;20026;-86
2023/11/15 01:17:21;;;;;;;17.23;2.58;;;;;;;8.57;100.00;100288.34;5032302;28;20026;-86
2023/11/15 01:19:46;;;;;;;18.38;2.38;;;;;;;8.52;100.00;100292.91;5031726;28;20022;-86
2023/11/15 01:22:12;;;;;;;14.20;2.00;;;;;;;8.59;100.00;100292.59;5045437;28;20545;-86
2023/11/15 01:24:39;;;;;;;12.52;1.65;;;;;;;8.63;100.00;100287.19;5051726;28;20425;-86
2023/11/15 01:27:06;;;;;;;7.18;1.58;;;;;;;8.66;100.00;100299.09;5050311;28;20059;-86
2023/11/15 01:29:31;;;;;;;11.25;2.08;;;;;;;8.57;100.00;100296.06;5051526;28;20028;-86
2023/11/15 01:31:56;;;;;;;14.50;2.65;;;;;;;8.51;100.00;100296.38;5037957;28;20037;-86
2023/11/15 01:34:22;;;;;;;16.33;1.67;;;;;;;8.41;100.00;100302.88;5046845;28;20029;-87
2023/11/15 01:36:48;;;;;;;17.35;2.10;;;;;;;8.37;100.00;100309.09;5033508;28;20433;-86
2023/11/15 01:39:16;;;;;;;16.33;1.77;;;;;;;8.49;100.00;100305.91;5031516;28;20540;-86
2023/11/15 01:41:47;;;;;;;14.57;1.98;;;;;;;8.44;100.00;100297.63;5031509;28;20026;-86
2023/11/15 01:44:13;;;;;;;;;;;;;;;8.53;100.00;100316.88;5046140;28;20049;-86
2023/11/15 01:46:38;;;;;;;12.15;2.10;;;;;;;8.38;100.00;100305.59;5051389;28;19936;-86
2023/11/15 01:49:05;;;;;;;19.20;2.13;;;;;;;8.28;100.00;100317.25;5051499;28;20108;-86
2023/11/15 01:51:31;;;;;;;14.07;2.15;;;;;;;8.28;100.00;100312.09;5050019;28;20083;-87
2023/11/15 01:53:56;;;;;;;18.35;2.40;;;;;;;8.36;100.00;100309.97;5049762;28;20494;-86
2023/11/15 01:56:22;;;;;;;21.77;3.10;;;;;;;8.30;100.00;100310.31;5051335;28;20033;-88
2023/11/15 01:58:50;;;;;;;16.20;2.92;;;;;;;8.47;100.00;100319.78;5051451;28;20501;-86
2023/11/15 02:01:16;;;;;;;13.20;2.33;;;;;;;8.39;100.00;100317.56;5051348;28;20092;-86
2023/11/15 02:03:43;;;;;;;16.42;2.38;;;;;;;8.36;100.00;100318.53;5049357;28;20028;-86
2023/11/15 02:06:09;;;;;;;28.05;4.13;;;;;;;8.32;100.00;100329.06;5049581;28;20103;-87
2023/11/15 02:08:35;;;;;;;14.57;1.98;;;;;;;8.31;100.00;100322.22;5034803;28;20471;-86
2023/11/15 02:11:00;;;;;;;14.18;2.20;;;;;;;8.22;100.00;100320.97;5046280;28;20548;-86
2023/11/15 02:13:26;;;;;;;14.43;2.22;;;;;;;8.15;100.00;100332.47;5055013;28;20029;-87
2023/11/15 02:15:53;;;;;;;21.67;3.95;;;;;;;8.15;100.00;100335.84;5054894;28;20024;-86
2023/11/15 02:18:19;;;;;;;13.85;2.53;;;;;;;8.23;100.00;100338.03;5054735;28;20519;-86
2023/11/15 02:20:46;;;;;;;20.70;2.45;;;;;;;8.14;100.00;100347.06;5053312;28;20071;-87
2023/11/15 02:23:13;;;;;;;16.45;2.22;;;;;;;8.22;100.00;100344.09;5054732;28;20021;-86
2023/11/15 02:25:40;;;;;;;13.98;3.03;;;;;;;8.26;100.00;100344.78;5054763;28;20025;-87
2023/11/15 02:28:07;;;;;;;19.55;3.75;;;;;;;8.23;100.00;100355.22;5054480;28;20074;-86
2023/11/15 02:30:33;;;;;;;14.75;1.90;;;;;;;8.20;100.00;100345.91;5052903;28;20041;-86
2023/11/15 02:32:58;;;;;;;9.80;2.00;;;;;;;8.18;100.00;100352.03;5054424;28;20537;-87
2023/11/15 02:35:23;;;;;;;11.88;1.48;;;;;;;8.00;100.00;100357.19;5054583;28;20025;-86
2023/11/15 02:37:49;;;;;;;13.07;2.20;;;;;;;7.90;100.00;100366.19;5054389;28;20021;-86
2023/11/15 02:40:16;;;;;;;12.52;1.92;;;;;;;7.98;100.00;100366.69;5052902;28;20047;-86
2023/11/15 02:42:41;;;;;;;18.80;3.30;;;;;;;7.92;100.00;100367.81;5052919;28;20503;-86
2023/11/15 02:45:07;;;;;;;10.70;1.58;;;;;;;7.98;100.00;100371.81;5054127;28;20025;-86
2023/11/15 02:47:32;;;;;;;12.32;2.53;;;;;;;8.07;100.00;100371.41;5054224;28;20021;-86
2023/11/15 02:49:57;;;;;;;17.48;2.88;;;;;;;8.17;100.00;100368.34;5051915;28;20503;-86
2023/11/15 02:52:23;;;;;;;21.55;2.35;;;;;;;8.07;100.00;100375.69;5049532;28;20032;-86
2023/11/15 02:54:48;;;;;;;21.77;4.22;;;;;;;8.01;100.00;100381.97;5054023;28;20529;-86
2023/11/15 02:57:14;;;;;;;12.88;2.25;;;;;;;8.10;100.00;100378.13;5053857;28;20028;-86
2023/11/15 02:59:39;;;;;;;13.05;2.08;;;;;;;7.97;100.00;100377.84;5051835;28;20032;-86
2023/11/15 03:02:05;;;;;;;19.85;3.25;;;;;;;8.10;100.00;100385.84;5052936;28;20128;-86
2023/11/15 03:04:30;;;;;;;17.00;2.58;;;;;;;7.98;100.00;100387.25;5052395;28;20020;-86
2023/11/15 03:06:55;;;;;;;19.17;2.55;;;;;;;8.01;100.00;100392.25;5053914;28;20025;-87
2023/11/15 03:09:21;;;;;;;11.45;2.28;;;;;;;7.97;100.00;100390.72;5053929;28;20495;-86
2023/11/15 03:11:47;;;;;;;15.60;2.30;;;;;;;8.06;100.00;100398.00;5052397;28;20036;-87
2023/11/15 03:14:12;;;;;;;14.77;2.13;;;;;;;7.89;100.00;100383.38;5033678;28;20051;-86
2023/11/15 03:16:38;;;;;;;19.63;2.60;;;;;;;7.84;100.00;100379.34;5033228;28;20026;-86
2023/11/15 03:19:04;;;;;;;7.25;1.90;;;;;;;7.68;100.00;100374.94;5032676;28;20065;-86
2023/11/15 03:21:29;;;;;;;11.57;1.60;;;;;;;7.74;100.00;100388.41;5046914;28;20090;-86
2023/11/15 03:23:55;;;;;;;17.85;2.47;;;;;;;7.68;100.00;100385.22;5053404;28;20476;-86
2023/11/15 03:26:20;;;;;;;16.27;1.95;;;;;;;7.59;100.00;100385.63;5053458;28;20033;-87
2023/11/15 03:28:46;;;;;;;12.95;2.45;;;;;;;7.61;100.00;100378.69;5053232;28;20136;-86
2023/11/15 03:31:12;;;;;;;10.57;2.40;;;;;;;7.62;100.00;100380.34;5040689;28;20029;-86
2023/11/15 03:33:39;;;;;;;19.20;3.38;;;;;;;7.58;100.00;100389.09;5032814;28;20035;-86
2023/11/15 03:36:05;;;;;;;13.07;2.30;;;;;;;7.52;100.00;100384.25;5033407;28;20483;-86
2023/11/15 03:38:31;;;;;;;11.98;2.40;;;;;;;7.56;100.00;100390.91;5038206;28;20037;-86
2023/11/15 03:40:56;;;;;;;12.52;2.20;;;;;;;7.58;100.00;100393.41;5053041;28;20530;-86
2023/11/15 03:43:22;;;;;;;9.55;1.98;;;;;;;7.60;100.00;100396.72;5053036;28;20127;-86
2023/11/15 03:45:47;;;;;;;14.25;2.03;;;;;;;7.56;100.00;100405.47;5053444;28;20021;-86
2023/11/15 03:48:12;;;;;;;9.63;1.80;;;;;;;7.69;100.00;100412.56;5051351;28;20447;-86
2023/11/15 03:50:38;;;;;;;11.82;1.95;;;;;;;7.71;100.00;100410.75;5051555;28;20028;-86
2023/11/15 03:53:03;;;;;;;16.35;1.88;;;;;;;7.72;100.00;100407.28;5052977;28;20100;-86
2023/11/15 03:55:30;;;;;;;17.08;2.38;;;;;;;7.72;100.00;100412.41;5053031;28;20118;-86
2023/11/15 03:57:55;;;;;;;13.85;2.00;;;;;;;7.67;100.00;100419.50;5051611;28;20498;-86
2023/11/15 04:00:22;;;;;;;12.65;1.90;;;;;;;7.70;100.00;100427.06;5036571;28;20042;-86
2023/11/15 04:02:47;;;;;;;16.10;1.75;;;;;;;7.70;100.00;100419.34;5033518;28;20025;-86
2023/11/15 04:05:16;;;;;;;11.80;1.80;;;;;;;7.84;100.00;100415.31;5032261;28;20121;-86
2023/11/15 04:07:42;;;;;;;15.52;1.85;;;;;;;7.78;100.00;100421.59;5032668;28;20027;-86
2023/11/15 04:10:09;;;;;;;13.77;2.05;;;;;;;7.65;100.00;100418.72;5050096;28;20021;-86
2023/11/15 04:12:35;;;;;;;13.70;1.75;;;;;;;7.63;100.00;100415.44;5052721;28;20029;-86
2023/11/15 04:15:00;;;;;;;16.00;1.60;;;;;;;7.59;100.00;100421.59;5052778;28;20029;-86
2023/11/15 04:17:25;;;;;;;14.55;2.63;;;;;;;7.53;100.00;100427.00;5051341;28;20121;-86
2023/11/15 04:19:51;;;;;;;8.48;1.67;;;;;;;7.44;100.00;100422.28;5051275;28;20036;-86
2023/11/15 04:22:16;;;;;;;14.52;2.58;;;;;;;7.41;100.00;100419.84;5051313;28;20086;-86
2023/11/15 04:24:42;;;;;;;13.52;2.13;;;;;;;7.40;100.00;100431.03;5052608;28;20048;-86
2023/11/15 04:27:08;;;;;;;18.90;1.92;;;;;;;7.43;100.00;100430.88;5052155;28;20041;-86
2023/11/15 04:29:34;;;;;;;13.48;2.15;;;;;;;7.46;100.00;100435.88;5051069;28;20033;-86
2023/11/15 04:31:59;;;;;;;13.15;1.73;;;;;;;7.42;100.00;100442.06;5051886;28;20433;-86
2023/11/15 04:34:24;;;;;;;15.63;2.28;;;;;;;7.49;100.00;100446.03;5052303;28;20024;-86
2023/11/15 04:36:50;;;;;;;10.38;2.47;;;;;;;7.43;100.00;100436.00;5052219;28;20025;-86
2023/11/15 04:39:15;;;;;;;10.10;1.55;;;;;;;7.37;100.00;100434.56;5050959;28;20039;-86
2023/11/15 04:41:40;;;;;;;17.85;2.03;;;;;;;7.45;100.00;100434.22;5052270;28;20104;-86
2023/11/15 04:44:05;;;;;;;15.02;2.63;;;;;;;7.39;100.00;100434.47;5052153;28;20021;-86
2023/11/15 04:46:34;;;;;;;11.27;2.05;;;;;;;7.39;100.00;100439.63;5052004;28;20024;-86
2023/11/15 04:48:59;;;;;;;13.55;1.85;;;;;;;7.47;100.00;100437.56;5050008;28;20035;-86
2023/11/15 04:51:24;;;;;;;9.68;1.63;;;;;;;7.41;100.00;100442.94;5051038;28;20112;-86
2023/11/15 04:53:50;;;;;;;18.52;2.20;;;;;;;7.62;100.00;100447.13;5052039;28;20108;-86
2023/11/15 04:56:15;;;;;;;16.67;1.83;;;;;;;7.49;100.00;100446.03;5052180;28;20414;-86
2023/11/15 04:58:40;;;;;;;17.98;1.90;;;;;;;7.39;100.00;100449.88;5049115;28;20064;-86
2023/11/15 05:01:06;;;;;;;21.02;2.30;;;;;;;7.36;100.00;100457.72;5032477;28;20022;-85
2023/11/15 05:03:32;;;;;;;6.90;1.40;;;;;;;7.28;100.00;100458.06;5031683;28;20018;-85
2023/11/15 05:05:57;;;;;;;7.55;1.23;;;;;;;7.31;100.00;100457.91;5031897;28;20036;-87
2023/11/15 05:08:22;;;;;;;14.88;2.00;;;;;;;7.21;100.00;100475.47;5032286;28;20034;-85
2023/11/15 05:10:48;;;;;;;11.68;2.67;;;;;;;7.23;100.00;100470.28;5050197;28;20025;-85
2023/11/15 05:13:13;;;;;;;12.73;2.75;;;;;;;7.21;100.00;100470.31;5051652;28;20094;-85
2023/11/15 05:15:39;;;;;;;7.40;1.17;;;;;;;7.13;100.00;100469.81;5050204;28;20025;-85
2023/11/15 05:18:04;;;;;;;17.63;1.88;;;;;;;7.16;100.00;100469.69;5051900;28;20056;-85
2023/11/15 05:20:29;;;;;;;12.68;2.03;;;;;;;7.20;100.00;100472.97;5039151;28;20038;-85
2023/11/15 05:22:55;;;;;;;17.52;2.17;;;;;;;7.24;100.00;100467.66;5031754;28;20428;-85
2023/11/15 05:25:21;;;;;;;14.30;1.83;;;;;;;7.51;100.00;100475.06;5031776;28;20057;-85
2023/11/15 05:27:47;;;;;;;10.65;2.15;;;;;;;7.47;100.00;100479.47;5031660;28;20022;-85
2023/11/15 05:30:14;;;;;;;9.98;1.67;;;;;;;7.37;100.00;100475.66;5047002;28;20315;-85
2023/11/15 05:32:39;;;;;;;17.13;2.53;;;;;;;7.39;100.00;100478.13;5052036;28;20025;-86
2023/11/15 05:35:05;;;;;;;15.15;2.20;;;;;;;7.31;100.00;100478.47;5051842;28;20032;-85
2023/11/15 05:37:31;;;;;;;14.10;1.60;;;;;;;7.47;100.00;100473.50;5051606;28;20483;-85
2023/11/15 05:39:56;;;;;;;29.42;2.50;;;;;;;7.59;100.00;100483.25;5052130;28;20029;-84
2023/11/15 05:42:21;;;;;;;10.35;1.83;;;;;;;7.37;100.00;100482.53;5053919;28;20387;-84
2023/11/15 05:44:48;;;;;;;10.60;1.70;;;;;;;7.36;100.00;100480.84;5055291;28;20100;-84
2023/11/15 05:47:15;;;;;;;8.15;1.42;;;;;;;7.27;100.00;100493.19;5055228;28;20029;-85
2023/11/15 05:49:41;;;;;;;13.88;2.00;;;;;;;7.50;100.00;100488.78;5042553;28;20369;-85
2023/11/15 05:52:06;;;;;;;21.90;4.22;;;;;;;7.37;100.00;100493.63;5035324;28;20049;-85
2023/11/15 05:54:32;;;;;;;13.77;1.67;;;;;;;7.32;100.00;100495.56;5033551;28;20025;-86
2023/11/15 05:56:58;;;;;;;15.45;2.55;;;;;;;7.42;100.00;100496.00;5034854;28;20029;-86
2023/11/15 05:59:24;;;;;;;14.75;2.35;;;;;;;7.34;100.00;100495.47;5042285;28;20495;-85
2023/11/15 06:01:51;;;;;;;19.13;2.17;;;;;;;7.27;100.00;100497.50;5054464;28;20117;-85
2023/11/15 06:04:17;;;;;;;15.80;2.55;;;;;;;7.20;100.00;100503.78;5055004;28;20021;-85
2023/11/15 06:06:42;;;;;;;13.75;2.30;;;;;;;7.17;100.00;100502.19;5055202;28;20028;-85
2023/11/15 06:09:13;;;;;;;23.35;1.80;;;;;;;7.13;100.00;100505.75;5052840;28;20099;-85
2023/11/15 06:11:39;;;;;;;22.08;2.97;;;;;;;7.17;100.00;100507.31;5054685;28;20036;-85
2023/11/15 06:14:04;;;;;;;12.10;1.92;;;;;;;7.41;100.00;100504.56;5054409;28;20352;-85
2023/11/15 06:16:30;;;;;;;13.85;2.30;;;;;;;7.29;100.00;100516.19;5055254;28;20020;-85
2023/11/15 06:18:55;;;;;;;17.88;1.92;;;;;;;7.21;100.00;100513.13;5048378;28;20506;-85
2023/11/15 06:21:21;;;;;;;15.15;2.20;;;;;;;7.22;100.00;100513.09;5034784;28;20080;-85
2023/11/15 06:23:46;;;;;;;16.35;1.80;;;;;;;7.38;100.00;100518.38;5033607;28;20116;-85
2023/11/15 06:26:12;;;;;;;9.27;2.17;;;;;;;7.51;100.00;100526.41;5034579;28;20021;-85
2023/11/15 06:28:38;;;;;;;16.52;2.55;;;;;;;7.37;100.00;100531.31;5035047;28;20034;-85
2023/11/15 06:31:04;;;;;;;11.65;2.22;;;;;;;7.34;100.00;100537.41;5054219;28;20113;-85
2023/11/15 06:33:31;;;;;;;25.23;2.78;;;;;;;7.20;100.00;100537.97;5054364;28;20104;-85
2023/11/15 06:35:56;;;;;;;23.10;2.03;;;;;;;7.20;100.00;100540.53;5054323;28;20025;-85
2023/11/15 06:38:22;;;;;;;20.75;2.20;;;;;;;7.16;100.00;100544.13;5054290;28;20048;-85
2023/11/15 06:40:47;;;;;;;11.98;1.88;;;;;;;7.15;100.00;100546.78;5051961;28;20025;-85
2023/11/15 06:43:14;;;;;;;19.30;4.13;;;;;;;7.15;100.00;100552.75;5054262;28;20021;-85
2023/11/15 06:45:39;;;;;;;13.88;3.05;;;;;;;7.18;100.00;100570.56;5054281;28;20057;-85
2023/11/15 06:48:06;;;;;;;22.95;2.50;;;;;;;7.12;100.00;100565.72;5052564;28;20122;-85
2023/11/15 06:50:34;;;;;;;11.07;1.90;;;;;;;7.08;100.00;100559.03;5048190;28;20178;-85
2023/11/15 06:53:00;;;;;;;18.67;3.10;;;;;;;7.08;100.00;100569.28;5052111;28;20074;-85
2023/11/15 06:55:25;;;;;;;16.08;3.00;;;;;;;7.06;100.00;100560.81;5053026;28;20025;-85
2023/11/15 06:57:51;;;;;;;13.65;1.98;;;;;;;7.03;100.00;100566.06;5053771;28;20037;-85
2023/11/15 07:00:17;;;;;;;18.17;1.90;;;;;;;7.06;100.00;100565.94;5052009;28;20025;-86
2023/11/15 07:02:42;;;;;;;22.73;3.08;;;;;;;7.35;100.00;100569.03;5053424;28;20032;-88
2023/11/15 07:05:10;;;;;;;13.02;1.90;;;;;;;7.19;100.00;100572.22;5043355;28;20030;-86
2023/11/15 07:07:35;;;;;;;21.10;2.92;;;;;;;7.13;100.00;100571.66;5040293;28;20515;-85
2023/11/15 07:10:05;;;;;;;13.85;1.92;;;;;;;7.09;100.00;100583.78;5037959;28;20096;-85
2023/11/15 07:12:30;;;;;;;23.27;2.75;;;;;;;6.98;100.00;100581.66;5039991;28;20030;-84
2023/11/15 07:14:57;;;;;;;19.65;2.67;;;;;;;7.00;100.00;100586.75;5036173;28;20439;-85
2023/11/15 07:17:23;;;;;;;29.15;2.55;;;;;;;7.09;100.00;100583.78;5042799;28;20036;-85
2023/11/15 07:19:48;;;;;;;10.30;1.95;;;;;;;7.33;100.00;100583.69;5050972;28;20021;-84
2023/11/15 07:22:14;;;;;;;19.33;2.35;;;;;;;7.38;100.00;100587.72;5046491;28;20036;-84
2023/11/15 07:24:41;;;;;;;11.93;2.05;;;;;;;7.24;100.00;100590.88;5042596;28;20107;-85
2023/11/15 07:27:09;;;;;;;21.00;2.20;;;;;;;7.22;100.00;100608.06;5044589;28;20037;-84
2023/11/15 07:29:36;;;;;;;15.65;2.08;;;;;;;7.17;100.00;100614.25;5047850;28;20156;-84
2023/11/15 07:32:04;;;;;;;19.77;2.63;;;;;;;7.16;100.00;100617.75;5049794;28;20048;-84
2023/11/15 07:34:33;;;;;;;23.58;2.50;;;;;;;7.25;100.00;100618.19;5051829;28;20029;-84
2023/11/15 07:36:59;;;;;;;21.85;2.70;;;;;;;7.14;100.00;100615.22;5051827;28;20041;-85
2023/11/15 07:39:25;;;;;;;21.33;3.60;;;;;;;7.10;100.00;100629.09;5052486;28;20435;-85
2023/11/15 07:41:51;;;;;;;12.05;2.35;;;;;;;7.10;100.00;100623.97;5051838;28;20021;-85
2023/11/15 07:44:18;;;;;;;13.10;1.80;;;;;;;7.11;100.00;100624.78;5052757;28;20028;-84
2023/11/15 07:46:51;;;;;;;15.20;2.40;;;;;;;7.17;100.00;100622.81;5048289;28;20026;-84
2023/11/15 07:49:23;;;;;;;20.20;2.35;;;;;;;7.24;100.00;100631.09;5032995;28;20056;-85
2023/11/15 07:51:48;;;;;;;;;;;;;;;7.19;100.00;100628.69;5033200;28;20025;-85
2023/11/15 07:54:15;;;;;;;11.85;2.75;;;;;;;7.12;100.00;100635.00;5032120;28;19913;-85
2023/11/15 07:56:41;;;;;;;15.27;1.90;;;;;;;7.08;100.00;100628.31;5032868;28;20025;-85
2023/11/15 07:59:06;;;;;;;15.35;2.17;;;;;;;7.08;100.00;100631.72;5032585;28;20434;-85
2023/11/15 08:01:31;;;;;;;17.38;2.15;;;;;;;7.00;100.00;100626.06;5032648;28;20041;-85
2023/11/15 08:03:57;;;;;;;15.68;2.10;;;;;;;7.08;100.00;100647.09;5032339;28;20025;-85
2023/11/15 08:06:22;;;;;;;14.15;2.50;;;;;;;7.22;100.00;100648.31;5032614;28;20018;-85
2023/11/15 08:08:48;;;;;;;11.75;2.22;;;;;;;7.31;100.00;100652.22;5045362;28;20419;-85
2023/11/15 08:11:15;;;;;;;25.80;2.67;;;;;;;7.22;100.00;100656.84;5033724;28;20041;-84
2023/11/15 08:13:41;;;;;;;16.50;3.10;;;;;;;7.43;100.00;100654.28;5044718;28;20756;-85
2023/11/15 08:16:12;;;;;;;17.85;2.47;;;;;;;7.46;100.00;100642.19;5032566;28;20065;-84
2023/11/15 08:18:38;;;;;;;24.35;3.03;;;;;;;7.46;100.00;100649.03;5031613;28;20088;-84
2023/11/15 08:21:05;;;;;;;20.95;2.25;;;;;;;7.56;100.00;100658.03;5036518;28;20034;-84
2023/11/15 08:23:30;;;;;;;19.08;2.58;;;;;;;7.56;100.00;100646.91;5033306;28;20106;-85
2023/11/15 08:26:01;;;;;;;12.18;1.50;;;;;;;7.58;100.00;100656.22;5030886;28;20153;-85
2023/11/15 08:28:27;;;;;;;11.53;2.47;;;;;;;7.52;100.00;100653.91;5044099;28;20021;-85
2023/11/15 08:30:52;;;;;;;10.07;1.90;;;;;;;7.63;100.00;100654.31;5040712;28;20644;-86
2023/11/15 08:33:18;;;;;;;12.68;1.95;;;;;;;7.60;100.00;100649.28;5033588;28;20037;-86
2023/11/15 08:35:44;;;;;;;12.15;1.95;;;;;;;7.67;100.00;100645.56;5050823;28;20036;-85
2023/11/15 08:38:10;;;;;;;15.75;2.35;;;;;;;7.72;100.00;100653.91;5048555;28;20050;-86
2023/11/15 08:40:37;;;;;;;21.35;2.95;;;;;;;7.80;100.00;100660.47;5032232;28;20025;-86
2023/11/15 08:43:03;;;;;;;21.90;2.35;;;;;;;7.76;100.00;100646.09;5031594;28;20025;-85
2023/11/15 08:45:28;;;;;;;16.00;2.92;;;;;;;7.77;100.00;100656.28;5044192;28;20091;-85
2023/11/15 08:47:56;;;;;;;16.13;3.05;;;;;;;7.76;100.00;100653.81;5032935;28;20479;-86
2023/11/15 08:50:24;;;;;;;16.85;2.45;;;;;;;7.83;100.00;100668.06;5052821;28;20036;-86
2023/11/15 08:52:49;;;;;;;11.55;2.17;;;;;;;7.82;100.00;100664.63;5040010;28;20025;-86
2023/11/15 08:55:14;;;;;;;18.63;2.90;;;;;;;7.93;100.00;100683.00;5045888;28;20040;-86
2023/11/15 08:57:40;;;;;;;18.30;3.38;;;;;;;8.02;100.00;100673.22;5032240;28;20388;-86
2023/11/15 09:00:12;;;;;;;18.48;2.47;;;;;;;7.97;100.00;100667.47;5032476;28;20033;-86
2023/11/15 09:02:47;;;;;;;21.00;3.13;;;;;;;7.93;100.00;100659.88;5031417;28;20426;-86
2023/11/15 09:05:13;;;;;;;18.70;3.00;;;;;;;8.01;100.00;100663.88;5047577;28;20086;-86
2023/11/15 09:07:39;;;;;;;17.20;3.65;;;;;;;8.05;100.00;100665.41;5039623;28;20030;-86
2023/11/15 09:10:08;;;;;;;17.80;3.35;;;;;;;8.05;100.00;100662.84;5033819;28;20025;-86
2023/11/15 09:12:35;;;;;;;11.93;2.58;;;;;;;8.10;100.00;100666.88;5031908;28;20036;-86
2023/11/15 09:15:03;;;;;;;25.00;3.00;;;;;;;8.18;100.00;100665.69;5031518;28;20025;-86
2023/11/15 09:17:29;;;;;;;12.38;2.45;;;;;;;8.24;100.00;100665.41;5030407;28;20017;-85
2023/11/15 09:19:59;;;;;;;19.20;2.83;;;;;;;8.13;100.00;100666.72;5031851;28;20518;-85
2023/11/15 09:22:24;;;;;;;22.02;2.72;;;;;;;8.24;100.00;100662.84;5032163;28;20379;-86
2023/11/15 09:24:53;;;;;;;23.58;3.17;;;;;;;8.27;100.00;100661.00;5031610;28;20029;-86
2023/11/15 09:27:22;;;;;;;22.55;3.15;;;;;;;8.27;100.00;100655.03;5030657;28;20025;-86
2023/11/15 09:29:48;;;;;;;15.23;2.22;;;;;;;8.34;100.00;100662.38;5049395;28;20024;-86
2023/11/15 09:32:14;;;;;;;12.27;2.25;;;;;;;8.36;100.00;100649.44;5051512;28;20040;-86
2023/11/15 09:34:39;;;;;;;12.48;2.03;;;;;;;8.42;100.00;100653.53;5050300;28;20033;-86
2023/11/15 09:37:04;;;;;;;24.02;3.17;;;;;;;8.43;100.00;100655.19;5051403;28;20099;-86
2023/11/15 09:39:30;;;;;;;28.08;4.18;;;;;;;8.50;100.00;100648.88;5048620;28;20117;-86
2023/11/15 09:41:56;;;;;;;16.33;2.75;;;;;;;8.57;100.00;100658.81;5050140;28;20025;-86
2023/11/15 09:44:23;;;;;;;17.73;2.97;;;;;;;8.61;100.00;100671.50;5051362;28;20036;-86
2023/11/15 09:46:52;;;;;;;22.52;4.70;;;;;;;8.72;100.00;100671.88;5051416;28;20029;-86
2023/11/15 09:49:20;;;;;;;15.93;3.65;;;;;;;9.00;100.00;100677.41;5035103;28;20033;-86
2023/11/15 09:51:45;;;;;;;19.58;2.58;;;;;;;9.20;100.00;100685.94;5031314;28;20037;-86
2023/11/15 09:54:12;;;;;;;12.63;2.33;;;;;;;9.23;100.00;100688.34;5031279;28;20037;-86
2023/11/15 09:56:40;;;;;;;18.80;2.63;;;;;;;9.71;100.00;100683.47;5031639;28;20017;-86
2023/11/15 09:59:05;;;;;;;13.85;2.92;;;;;;;10.23;100.00;100685.97;5041582;28;20112;-86
2023/11/15 10:01:30;;;;;;;24.02;5.40;;;;;;;10.82;100.00;100694.06;5050015;28;20538;-86
2023/11/15 10:03:58;;;;;;;20.15;4.05;;;;;;;11.13;100.00;100698.38;5051170;28;20021;-86
2023/11/15 10:06:24;;;;;;;18.40;2.92;;;;;;;10.95;100.00;100700.22;5050136;28;20479;-86
2023/11/15 10:08:54;;;;;;;13.70;2.17;;;;;;;11.00;100.00;100708.56;5049779;28;20499;-86
2023/11/15 10:11:20;;;;;;;11.95;2.10;;;;;;;11.01;100.00;100710.22;5051203;28;20487;-86
2023/11/15 10:13:52;;;;;;;20.63;2.58;;;;;;;11.83;100.00;100715.97;5051156;28;20480;-86
2023/11/15 10:16:22;;;;;;;13.25;2.40;;;;;;;12.46;98.01;100717.41;5051474;28;20067;-86
2023/11/15 10:18:48;;;;;;;8.30;2.00;;;;;;;12.90;94.84;100726.78;5051122;28;20029;-86
2023/11/15 10:21:15;;;;;;;9.00;2.20;;;;;;;14.40;82.07;100716.13;5037933;28;20021;-87
2023/11/15 10:23:41;;;;;;;14.02;3.25;;;;;;;13.89;81.21;100719.56;5030862;28;20033;-86
2023/11/15 10:26:09;;;;;;;15.20;2.53;;;;;;;12.56;92.63;100729.72;5032025;28;20029;-86
2023/11/15 10:28:39;;;;;;;16.52;2.20;;;;;;;13.18;89.99;100729.31;5034901;28;20371;-86
2023/11/15 10:31:05;;;;;;;12.70;2.47;;;;;;;14.41;83.32;100731.63;5033246;28;20044;-86
2023/11/15 10:33:37;;;;;;;11.65;1.75;;;;;;;15.32;77.28;100736.47;5034626;28;20022;-87
2023/11/15 10:36:15;;;;;;;;;;;;;;;14.78;77.43;100731.69;5034812;28;20029;-86
2023/11/15 10:38:54;;;;;;;15.18;2.67;;;;;;;14.79;78.67;100732.50;5034518;28;19943;-86
2023/11/15 10:41:22;;;;;;;11.55;1.88;;;;;;;14.25;76.89;100743.97;5034544;28;20112;-87
2023/11/15 10:43:54;;;;;;;15.27;1.90;;;;;;;15.04;72.83;100752.38;5034368;28;20344;-87
2023/11/15 10:46:30;;;;;;;10.07;1.77;;;;;;;15.07;72.91;100747.81;5033251;28;20049;-87
2023/11/15 10:49:00;;;;;;;21.08;2.53;;;;;;;14.79;74.14;100743.72;5033214;28;20075;-86
2023/11/15 10:51:47;;;;;;;16.35;2.42;;;;;;;15.63;72.03;100755.03;5034151;28;20039;-87
2023/11/15 10:54:14;;;;;;;11.48;1.70;;;;;;;15.17;72.05;100747.97;5033034;28;20022;-87
2023/11/15 10:56:41;;;;;;;18.65;2.80;;;;;;;14.25;78.33;100754.34;5034413;28;20030;-87
2023/11/15 10:59:09;;;;;;;8.60;1.73;;;;;;;14.77;77.13;100750.78;5032895;28;20029;-87
2023/11/15 11:01:36;;;;;;;10.55;1.77;;;;;;;14.80;74.54;100754.94;5034351;28;20076;-87
2023/11/15 11:04:03;;;;;;;6.63;1.80;;;;;;;14.70;74.16;100759.94;5033739;28;20029;-86
2023/11/15 11:06:47;;;;;;;11.68;1.95;;;;;;;14.47;76.20;100762.34;5033962;28;20021;-87
2023/11/15 11:09:30;;;;;;;11.38;1.60;;;;;;;14.45;75.86;100761.59;5033819;28;20102;-87
2023/11/15 11:12:12;;;;;;;11.25;1.67;;;;;;;14.19;77.68;100765.13;5033785;28;20494;-86
2023/11/15 11:14:39;;;;;;;7.90;1.50;;;;;;;14.11;77.62;100758.69;5033629;28;20492;-87
2023/11/15 11:17:30;;;;;;;9.82;1.83;;;;;;;14.34;75.75;100766.72;5033809;28;20061;-86